sensor_id;sensor_type;location;lat;lon;timestamp;P1;durP1;ratioP1;P2;durP2;ratioP2
3779;SDS011;1905;52.482;9.802;2023-04-08T00:02:16;4.33;;;3.37;;
3779;SDS011;1905;52.482;9.802;2023-04-08T00:04:45;4.80;;;3.97;;
3779;SDS011;1905;52.482;9.802;2023-04-08T00:07:13;8.77;;;3.30;;
3779;SDS011;1905;52.482;9.802;2023-04-08T00:09:40;7.23;;;4.40;;
3779;SDS011;1905;52.482;9.802;2023-04-08T00:12:08;4.20;;;3.67;;
3779;SDS011;1905;52.482;9.802;2023-04-08T00:14:36;3.70;;;3.17;;
3779;SDS011;1905;52.482;9.802;2023-04-08T00:17:03;4.47;;;3.67;;
3779;SDS011;1905;52.482;9.802;2023-04-08T00:19:31;5.50;;;3.77;;
3779;SDS011;1905;52.482;9.802;2023-04-08T00:22:02;5.57;;;3.90;;
3779;SDS011;1905;52.482;9.802;2023-04-08T00:24:30;5.23;;;3.80;;
3779;SDS011;1905;52.482;9.802;2023-04-08T00:26:58;4.73;;;3.53;;
3779;SDS011;1905;52.482;9.802;2023-04-08T00:29:25;7.97;;;5.10;;
3779;SDS011;1905;52.482;9.802;2023-04-08T00:31:53;4.70;;;3.27;;
3779;SDS011;1905;52.482;9.802;2023-04-08T00:34:21;5.63;;;4.00;;
3779;SDS011;1905;52.482;9.802;2023-04-08T00:36:49;5.93;;;3.60;;
3779;SDS011;1905;52.482;9.802;2023-04-08T00:39:18;7.47;;;4.10;;
3779;SDS011;1905;52.482;9.802;2023-04-08T00:41:46;5.27;;;4.57;;
3779;SDS011;1905;52.482;9.802;2023-04-08T00:44:14;6.57;;;3.70;;
3779;SDS011;1905;52.482;9.802;2023-04-08T00:46:42;4.17;;;3.57;;
3779;SDS011;1905;52.482;9.802;2023-04-08T00:49:09;5.80;;;4.20;;
3779;SDS011;1905;52.482;9.802;2023-04-08T00:51:37;7.03;;;4.07;;
3779;SDS011;1905;52.482;9.802;2023-04-08T00:54:05;10.23;;;4.20;;
3779;SDS011;1905;52.482;9.802;2023-04-08T00:56:35;6.33;;;4.17;;
3779;SDS011;1905;52.482;9.802;2023-04-08T00:59:03;6.40;;;3.60;;
3779;SDS011;1905;52.482;9.802;2023-04-08T01:01:33;5.17;;;3.33;;
3779;SDS011;1905;52.482;9.802;2023-04-08T01:04:12;4.23;;;3.07;;
3779;SDS011;1905;52.482;9.802;2023-04-08T01:06:50;5.77;;;3.37;;
3779;SDS011;1905;52.482;9.802;2023-04-08T01:09:27;4.87;;;3.50;;
3779;SDS011;1905;52.482;9.802;2023-04-08T01:12:00;5.20;;;3.77;;
3779;SDS011;1905;52.482;9.802;2023-04-08T01:14:34;6.03;;;4.00;;
3779;SDS011;1905;52.482;9.802;2023-04-08T01:17:06;4.43;;;3.27;;
3779;SDS011;1905;52.482;9.802;2023-04-08T01:19:37;4.87;;;3.43;;
3779;SDS011;1905;52.482;9.802;2023-04-08T01:22:09;5.63;;;3.30;;
3779;SDS011;1905;52.482;9.802;2023-04-08T01:24:42;3.10;;;2.80;;
3779;SDS011;1905;52.482;9.802;2023-04-08T01:27:13;4.37;;;3.40;;
3779;SDS011;1905;52.482;9.802;2023-04-08T01:29:42;7.43;;;3.70;;
3779;SDS011;1905;52.482;9.802;2023-04-08T01:32:11;4.57;;;3.40;;
3779;SDS011;1905;52.482;9.802;2023-04-08T01:34:41;3.97;;;2.97;;
3779;SDS011;1905;52.482;9.802;2023-04-08T01:37:10;4.90;;;3.77;;
3779;SDS011;1905;52.482;9.802;2023-04-08T01:39:39;4.40;;;4.00;;
3779;SDS011;1905;52.482;9.802;2023-04-08T01:42:10;6.10;;;3.50;;
3779;SDS011;1905;52.482;9.802;2023-04-08T01:44:42;3.80;;;3.50;;
3779;SDS011;1905;52.482;9.802;2023-04-08T01:47:10;5.30;;;3.10;;
3779;SDS011;1905;52.482;9.802;2023-04-08T01:49:39;5.57;;;3.47;;
3779;SDS011;1905;52.482;9.802;2023-04-08T01:52:08;3.70;;;3.40;;
3779;SDS011;1905;52.482;9.802;2023-04-08T01:54:37;4.13;;;3.37;;
3779;SDS011;1905;52.482;9.802;2023-04-08T01:57:05;4.37;;;3.63;;
3779;SDS011;1905;52.482;9.802;2023-04-08T01:59:39;4.37;;;3.60;;
3779;SDS011;1905;52.482;9.802;2023-04-08T02:02:10;8.13;;;3.40;;
3779;SDS011;1905;52.482;9.802;2023-04-08T02:04:39;4.23;;;3.27;;
3779;SDS011;1905;52.482;9.802;2023-04-08T02:07:07;6.70;;;3.73;;
3779;SDS011;1905;52.482;9.802;2023-04-08T02:09:35;5.03;;;4.00;;
3779;SDS011;1905;52.482;9.802;2023-04-08T02:12:03;7.93;;;4.13;;
3779;SDS011;1905;52.482;9.802;2023-04-08T02:14:31;5.30;;;3.40;;
3779;SDS011;1905;52.482;9.802;2023-04-08T02:17:01;6.23;;;3.40;;
3779;SDS011;1905;52.482;9.802;2023-04-08T02:19:35;7.70;;;3.90;;
3779;SDS011;1905;52.482;9.802;2023-04-08T02:22:08;6.20;;;4.90;;
3779;SDS011;1905;52.482;9.802;2023-04-08T02:24:43;5.00;;;4.17;;
3779;SDS011;1905;52.482;9.802;2023-04-08T02:27:12;6.57;;;4.10;;
3779;SDS011;1905;52.482;9.802;2023-04-08T02:29:40;4.73;;;3.33;;
3779;SDS011;1905;52.482;9.802;2023-04-08T02:32:10;5.60;;;3.87;;
3779;SDS011;1905;52.482;9.802;2023-04-08T02:34:39;5.07;;;4.07;;
3779;SDS011;1905;52.482;9.802;2023-04-08T02:37:08;6.50;;;3.87;;
3779;SDS011;1905;52.482;9.802;2023-04-08T02:39:36;6.83;;;4.60;;
3779;SDS011;1905;52.482;9.802;2023-04-08T02:42:03;7.20;;;4.80;;
3779;SDS011;1905;52.482;9.802;2023-04-08T02:44:31;7.23;;;3.93;;
3779;SDS011;1905;52.482;9.802;2023-04-08T02:47:01;6.87;;;3.90;;
3779;SDS011;1905;52.482;9.802;2023-04-08T02:49:30;4.93;;;4.43;;
3779;SDS011;1905;52.482;9.802;2023-04-08T02:51:57;5.47;;;4.40;;
3779;SDS011;1905;52.482;9.802;2023-04-08T02:54:25;6.47;;;4.07;;
3779;SDS011;1905;52.482;9.802;2023-04-08T02:56:53;5.63;;;4.07;;
3779;SDS011;1905;52.482;9.802;2023-04-08T02:59:20;5.80;;;4.70;;
3779;SDS011;1905;52.482;9.802;2023-04-08T03:01:51;6.23;;;4.50;;
3779;SDS011;1905;52.482;9.802;2023-04-08T03:04:19;6.90;;;5.00;;
3779;SDS011;1905;52.482;9.802;2023-04-08T03:06:48;7.43;;;4.67;;
3779;SDS011;1905;52.482;9.802;2023-04-08T03:09:15;6.63;;;4.37;;
3779;SDS011;1905;52.482;9.802;2023-04-08T03:11:43;8.47;;;4.67;;
3779;SDS011;1905;52.482;9.802;2023-04-08T03:14:10;9.97;;;5.50;;
3779;SDS011;1905;52.482;9.802;2023-04-08T03:16:38;7.63;;;5.43;;
3779;SDS011;1905;52.482;9.802;2023-04-08T03:19:06;8.27;;;4.90;;
3779;SDS011;1905;52.482;9.802;2023-04-08T03:21:33;9.57;;;5.23;;
3779;SDS011;1905;52.482;9.802;2023-04-08T03:24:02;10.07;;;5.77;;
3779;SDS011;1905;52.482;9.802;2023-04-08T03:26:30;11.23;;;6.47;;
3779;SDS011;1905;52.482;9.802;2023-04-08T03:28:57;7.60;;;5.00;;
3779;SDS011;1905;52.482;9.802;2023-04-08T03:31:26;9.63;;;5.87;;
3779;SDS011;1905;52.482;9.802;2023-04-08T03:33:53;13.60;;;5.67;;
3779;SDS011;1905;52.482;9.802;2023-04-08T03:36:21;15.20;;;6.60;;
3779;SDS011;1905;52.482;9.802;2023-04-08T03:38:48;9.50;;;6.63;;
3779;SDS011;1905;52.482;9.802;2023-04-08T03:41:18;6.70;;;5.20;;
3779;SDS011;1905;52.482;9.802;2023-04-08T03:43:46;15.00;;;7.20;;
3779;SDS011;1905;52.482;9.802;2023-04-08T03:46:13;11.37;;;6.33;;
3779;SDS011;1905;52.482;9.802;2023-04-08T03:48:41;9.53;;;6.20;;
3779;SDS011;1905;52.482;9.802;2023-04-08T03:51:09;9.90;;;5.67;;
3779;SDS011;1905;52.482;9.802;2023-04-08T03:53:36;14.13;;;6.67;;
3779;SDS011;1905;52.482;9.802;2023-04-08T03:56:04;11.50;;;7.13;;
3779;SDS011;1905;52.482;9.802;2023-04-08T03:58:34;12.40;;;6.10;;
3779;SDS011;1905;52.482;9.802;2023-04-08T04:01:01;8.50;;;6.03;;
3779;SDS011;1905;52.482;9.802;2023-04-08T04:03:32;8.03;;;6.47;;
3779;SDS011;1905;52.482;9.802;2023-04-08T04:05:59;11.07;;;6.10;;
3779;SDS011;1905;52.482;9.802;2023-04-08T04:08:27;8.03;;;5.77;;
3779;SDS011;1905;52.482;9.802;2023-04-08T04:10:55;11.67;;;6.07;;
3779;SDS011;1905;52.482;9.802;2023-04-08T04:13:24;15.53;;;7.93;;
3779;SDS011;1905;52.482;9.802;2023-04-08T04:15:53;12.03;;;6.90;;
3779;SDS011;1905;52.482;9.802;2023-04-08T04:18:20;11.73;;;7.10;;
3779;SDS011;1905;52.482;9.802;2023-04-08T04:20:48;11.80;;;6.73;;
3779;SDS011;1905;52.482;9.802;2023-04-08T04:23:15;15.03;;;7.10;;
3779;SDS011;1905;52.482;9.802;2023-04-08T04:25:43;13.93;;;7.97;;
3779;SDS011;1905;52.482;9.802;2023-04-08T04:28:11;14.03;;;7.03;;
3779;SDS011;1905;52.482;9.802;2023-04-08T04:30:38;13.97;;;6.83;;
3779;SDS011;1905;52.482;9.802;2023-04-08T04:33:08;12.70;;;6.90;;
3779;SDS011;1905;52.482;9.802;2023-04-08T04:35:35;11.20;;;7.03;;
3779;SDS011;1905;52.482;9.802;2023-04-08T04:38:03;10.10;;;6.30;;
3779;SDS011;1905;52.482;9.802;2023-04-08T04:40:33;12.83;;;7.20;;
3779;SDS011;1905;52.482;9.802;2023-04-08T04:43:00;13.10;;;6.70;;
3779;SDS011;1905;52.482;9.802;2023-04-08T04:45:28;13.27;;;6.40;;
3779;SDS011;1905;52.482;9.802;2023-04-08T04:47:55;10.60;;;7.00;;
3779;SDS011;1905;52.482;9.802;2023-04-08T04:50:24;10.93;;;6.37;;
3779;SDS011;1905;52.482;9.802;2023-04-08T04:52:53;12.23;;;7.87;;
3779;SDS011;1905;52.482;9.802;2023-04-08T04:55:21;13.57;;;8.93;;
3779;SDS011;1905;52.482;9.802;2023-04-08T04:57:49;13.27;;;8.23;;
3779;SDS011;1905;52.482;9.802;2023-04-08T05:00:16;9.90;;;6.00;;
3779;SDS011;1905;52.482;9.802;2023-04-08T05:02:44;11.90;;;7.40;;
3779;SDS011;1905;52.482;9.802;2023-04-08T05:05:12;13.20;;;8.10;;
3779;SDS011;1905;52.482;9.802;2023-04-08T05:07:41;14.70;;;7.23;;
3779;SDS011;1905;52.482;9.802;2023-04-08T05:10:09;12.33;;;6.63;;
3779;SDS011;1905;52.482;9.802;2023-04-08T05:12:37;16.57;;;7.70;;
3779;SDS011;1905;52.482;9.802;2023-04-08T05:15:05;12.40;;;7.20;;
3779;SDS011;1905;52.482;9.802;2023-04-08T05:17:33;14.10;;;6.50;;
3779;SDS011;1905;52.482;9.802;2023-04-08T05:20:01;10.90;;;6.67;;
3779;SDS011;1905;52.482;9.802;2023-04-08T05:22:28;11.47;;;5.57;;
3779;SDS011;1905;52.482;9.802;2023-04-08T05:24:57;12.33;;;6.90;;
3779;SDS011;1905;52.482;9.802;2023-04-08T05:27:25;11.50;;;6.67;;
3779;SDS011;1905;52.482;9.802;2023-04-08T05:29:52;11.00;;;5.70;;
3779;SDS011;1905;52.482;9.802;2023-04-08T05:32:20;17.13;;;6.73;;
3779;SDS011;1905;52.482;9.802;2023-04-08T05:34:48;10.80;;;7.50;;
3779;SDS011;1905;52.482;9.802;2023-04-08T05:37:15;10.27;;;6.60;;
3779;SDS011;1905;52.482;9.802;2023-04-08T05:39:43;14.00;;;7.20;;
3779;SDS011;1905;52.482;9.802;2023-04-08T05:42:12;14.47;;;7.20;;
3779;SDS011;1905;52.482;9.802;2023-04-08T05:44:40;14.50;;;7.60;;
3779;SDS011;1905;52.482;9.802;2023-04-08T05:47:09;14.10;;;6.77;;
3779;SDS011;1905;52.482;9.802;2023-04-08T05:49:37;17.70;;;7.37;;
3779;SDS011;1905;52.482;9.802;2023-04-08T05:52:04;12.40;;;7.30;;
3779;SDS011;1905;52.482;9.802;2023-04-08T05:54:32;15.37;;;7.43;;
3779;SDS011;1905;52.482;9.802;2023-04-08T05:56:59;10.80;;;7.07;;
3779;SDS011;1905;52.482;9.802;2023-04-08T05:59:30;15.30;;;6.17;;
3779;SDS011;1905;52.482;9.802;2023-04-08T06:01:57;11.57;;;6.47;;
3779;SDS011;1905;52.482;9.802;2023-04-08T06:04:25;12.00;;;6.50;;
3779;SDS011;1905;52.482;9.802;2023-04-08T06:06:53;12.30;;;6.87;;
3779;SDS011;1905;52.482;9.802;2023-04-08T06:09:22;16.73;;;6.90;;
3779;SDS011;1905;52.482;9.802;2023-04-08T06:11:50;11.97;;;7.57;;
3779;SDS011;1905;52.482;9.802;2023-04-08T06:14:18;14.83;;;7.37;;
3779;SDS011;1905;52.482;9.802;2023-04-08T06:16:47;11.43;;;7.10;;
3779;SDS011;1905;52.482;9.802;2023-04-08T06:19:14;9.13;;;6.10;;
3779;SDS011;1905;52.482;9.802;2023-04-08T06:21:42;12.77;;;8.20;;
3779;SDS011;1905;52.482;9.802;2023-04-08T06:24:09;13.97;;;7.30;;
3779;SDS011;1905;52.482;9.802;2023-04-08T06:26:37;12.07;;;6.77;;
3779;SDS011;1905;52.482;9.802;2023-04-08T06:29:04;10.50;;;6.10;;
3779;SDS011;1905;52.482;9.802;2023-04-08T06:31:33;11.27;;;6.27;;
3779;SDS011;1905;52.482;9.802;2023-04-08T06:34:02;13.13;;;6.97;;
3779;SDS011;1905;52.482;9.802;2023-04-08T06:36:30;17.33;;;7.90;;
3779;SDS011;1905;52.482;9.802;2023-04-08T06:38:57;17.03;;;6.73;;
3779;SDS011;1905;52.482;9.802;2023-04-08T06:41:25;10.40;;;7.80;;
3779;SDS011;1905;52.482;9.802;2023-04-08T06:44:00;14.60;;;6.93;;
3779;SDS011;1905;52.482;9.802;2023-04-08T06:46:27;12.53;;;6.40;;
3779;SDS011;1905;52.482;9.802;2023-04-08T06:48:55;16.97;;;6.43;;
3779;SDS011;1905;52.482;9.802;2023-04-08T06:51:24;15.63;;;7.57;;
3779;SDS011;1905;52.482;9.802;2023-04-08T06:53:53;9.73;;;6.30;;
3779;SDS011;1905;52.482;9.802;2023-04-08T06:56:20;11.70;;;6.10;;
3779;SDS011;1905;52.482;9.802;2023-04-08T06:58:48;12.40;;;6.50;;
3779;SDS011;1905;52.482;9.802;2023-04-08T07:01:16;9.17;;;6.27;;
3779;SDS011;1905;52.482;9.802;2023-04-08T07:03:44;8.67;;;6.40;;
3779;SDS011;1905;52.482;9.802;2023-04-08T07:06:11;11.50;;;6.83;;
3779;SDS011;1905;52.482;9.802;2023-04-08T07:08:40;14.90;;;8.40;;
3779;SDS011;1905;52.482;9.802;2023-04-08T07:11:08;16.20;;;8.00;;
3779;SDS011;1905;52.482;9.802;2023-04-08T07:13:36;10.83;;;6.47;;
3779;SDS011;1905;52.482;9.802;2023-04-08T07:16:04;12.03;;;7.60;;
3779;SDS011;1905;52.482;9.802;2023-04-08T07:18:32;9.90;;;6.43;;
3779;SDS011;1905;52.482;9.802;2023-04-08T07:20:59;18.43;;;8.90;;
3779;SDS011;1905;52.482;9.802;2023-04-08T07:23:27;17.47;;;8.10;;
3779;SDS011;1905;52.482;9.802;2023-04-08T07:26:00;15.90;;;8.10;;
3779;SDS011;1905;52.482;9.802;2023-04-08T07:28:28;16.77;;;7.40;;
3779;SDS011;1905;52.482;9.802;2023-04-08T07:30:55;13.97;;;7.13;;
3779;SDS011;1905;52.482;9.802;2023-04-08T07:33:23;17.63;;;8.40;;
3779;SDS011;1905;52.482;9.802;2023-04-08T07:35:51;12.40;;;7.77;;
3779;SDS011;1905;52.482;9.802;2023-04-08T07:38:19;12.53;;;7.60;;
3779;SDS011;1905;52.482;9.802;2023-04-08T07:40:46;17.00;;;8.17;;
3779;SDS011;1905;52.482;9.802;2023-04-08T07:43:15;11.47;;;6.93;;
3779;SDS011;1905;52.482;9.802;2023-04-08T07:45:42;12.07;;;7.43;;
3779;SDS011;1905;52.482;9.802;2023-04-08T07:48:10;13.27;;;7.60;;
3779;SDS011;1905;52.482;9.802;2023-04-08T07:50:38;11.67;;;6.57;;
3779;SDS011;1905;52.482;9.802;2023-04-08T07:53:25;12.00;;;6.93;;
3779;SDS011;1905;52.482;9.802;2023-04-08T07:55:53;15.57;;;8.40;;
3779;SDS011;1905;52.482;9.802;2023-04-08T07:58:22;17.20;;;7.70;;
3779;SDS011;1905;52.482;9.802;2023-04-08T08:00:50;12.30;;;7.57;;
3779;SDS011;1905;52.482;9.802;2023-04-08T08:03:18;13.90;;;7.37;;
3779;SDS011;1905;52.482;9.802;2023-04-08T08:05:46;13.83;;;8.30;;
3779;SDS011;1905;52.482;9.802;2023-04-08T08:08:14;17.50;;;6.77;;
3779;SDS011;1905;52.482;9.802;2023-04-08T08:10:41;17.63;;;7.50;;
3779;SDS011;1905;52.482;9.802;2023-04-08T08:13:09;17.70;;;7.90;;
3779;SDS011;1905;52.482;9.802;2023-04-08T08:15:39;11.50;;;7.70;;
3779;SDS011;1905;52.482;9.802;2023-04-08T08:18:06;15.53;;;8.77;;
3779;SDS011;1905;52.482;9.802;2023-04-08T08:20:34;11.13;;;8.10;;
3779;SDS011;1905;52.482;9.802;2023-04-08T08:23:02;13.63;;;7.93;;
3779;SDS011;1905;52.482;9.802;2023-04-08T08:25:29;13.23;;;7.70;;
3779;SDS011;1905;52.482;9.802;2023-04-08T08:27:57;14.80;;;7.73;;
3779;SDS011;1905;52.482;9.802;2023-04-08T08:30:24;12.30;;;7.20;;
3779;SDS011;1905;52.482;9.802;2023-04-08T08:32:54;20.80;;;9.23;;
3779;SDS011;1905;52.482;9.802;2023-04-08T08:35:24;13.17;;;7.00;;
3779;SDS011;1905;52.482;9.802;2023-04-08T08:37:51;15.73;;;8.60;;
3779;SDS011;1905;52.482;9.802;2023-04-08T08:40:19;14.80;;;8.83;;
3779;SDS011;1905;52.482;9.802;2023-04-08T08:42:50;16.37;;;8.80;;
3779;SDS011;1905;52.482;9.802;2023-04-08T08:45:18;15.00;;;9.20;;
3779;SDS011;1905;52.482;9.802;2023-04-08T08:47:46;13.60;;;7.53;;
3779;SDS011;1905;52.482;9.802;2023-04-08T08:50:18;15.07;;;9.90;;
3779;SDS011;1905;52.482;9.802;2023-04-08T08:52:49;14.70;;;6.90;;
3779;SDS011;1905;52.482;9.802;2023-04-08T08:55:17;14.67;;;7.83;;
3779;SDS011;1905;52.482;9.802;2023-04-08T08:58:05;21.23;;;9.87;;
3779;SDS011;1905;52.482;9.802;2023-04-08T09:00:33;14.77;;;7.30;;
3779;SDS011;1905;52.482;9.802;2023-04-08T09:03:13;16.53;;;7.67;;
3779;SDS011;1905;52.482;9.802;2023-04-08T09:05:53;14.80;;;8.10;;
3779;SDS011;1905;52.482;9.802;2023-04-08T09:08:22;16.40;;;9.37;;
3779;SDS011;1905;52.482;9.802;2023-04-08T09:10:50;13.80;;;8.20;;
3779;SDS011;1905;52.482;9.802;2023-04-08T09:13:17;14.00;;;8.20;;
3779;SDS011;1905;52.482;9.802;2023-04-08T09:18:35;16.10;;;7.90;;
3779;SDS011;1905;52.482;9.802;2023-04-08T09:21:05;17.37;;;7.50;;
3779;SDS011;1905;52.482;9.802;2023-04-08T09:23:36;14.83;;;7.23;;
3779;SDS011;1905;52.482;9.802;2023-04-08T09:26:09;15.43;;;8.30;;
3779;SDS011;1905;52.482;9.802;2023-04-08T09:28:41;15.83;;;7.87;;
3779;SDS011;1905;52.482;9.802;2023-04-08T09:31:16;10.70;;;6.80;;
3779;SDS011;1905;52.482;9.802;2023-04-08T09:33:48;20.83;;;7.30;;
3779;SDS011;1905;52.482;9.802;2023-04-08T09:36:19;10.73;;;6.90;;
3779;SDS011;1905;52.482;9.802;2023-04-08T09:38:46;17.43;;;7.70;;
3779;SDS011;1905;52.482;9.802;2023-04-08T09:41:15;13.37;;;7.43;;
3779;SDS011;1905;52.482;9.802;2023-04-08T09:43:43;11.80;;;6.93;;
3779;SDS011;1905;52.482;9.802;2023-04-08T09:46:17;18.57;;;9.10;;
3779;SDS011;1905;52.482;9.802;2023-04-08T09:48:49;14.20;;;8.13;;
3779;SDS011;1905;52.482;9.802;2023-04-08T09:51:24;13.73;;;7.33;;
3779;SDS011;1905;52.482;9.802;2023-04-08T09:53:58;12.37;;;7.90;;
3779;SDS011;1905;52.482;9.802;2023-04-08T09:56:29;15.27;;;8.10;;
3779;SDS011;1905;52.482;9.802;2023-04-08T09:59:08;13.60;;;7.50;;
3779;SDS011;1905;52.482;9.802;2023-04-08T10:01:39;9.70;;;6.97;;
3779;SDS011;1905;52.482;9.802;2023-04-08T10:04:11;9.90;;;7.40;;
3779;SDS011;1905;52.482;9.802;2023-04-08T10:06:43;11.27;;;7.80;;
3779;SDS011;1905;52.482;9.802;2023-04-08T10:09:13;10.80;;;7.80;;
3779;SDS011;1905;52.482;9.802;2023-04-08T10:11:41;18.30;;;8.73;;
3779;SDS011;1905;52.482;9.802;2023-04-08T10:14:09;15.50;;;8.00;;
3779;SDS011;1905;52.482;9.802;2023-04-08T10:16:36;10.50;;;7.83;;
3779;SDS011;1905;52.482;9.802;2023-04-08T10:19:06;15.80;;;8.50;;
3779;SDS011;1905;52.482;9.802;2023-04-08T10:25:27;15.47;;;8.03;;
3779;SDS011;1905;52.482;9.802;2023-04-08T10:27:56;14.77;;;8.00;;
3779;SDS011;1905;52.482;9.802;2023-04-08T10:30:40;14.43;;;8.17;;
3779;SDS011;1905;52.482;9.802;2023-04-08T10:33:09;14.23;;;7.20;;
3779;SDS011;1905;52.482;9.802;2023-04-08T10:35:39;18.60;;;8.73;;
3779;SDS011;1905;52.482;9.802;2023-04-08T10:38:09;12.90;;;8.30;;
3779;SDS011;1905;52.482;9.802;2023-04-08T10:40:38;16.77;;;7.83;;
3779;SDS011;1905;52.482;9.802;2023-04-08T10:43:07;13.63;;;8.50;;
3779;SDS011;1905;52.482;9.802;2023-04-08T10:45:36;16.90;;;9.20;;
3779;SDS011;1905;52.482;9.802;2023-04-08T10:48:10;14.70;;;8.50;;
3779;SDS011;1905;52.482;9.802;2023-04-08T10:50:43;14.47;;;10.60;;
3779;SDS011;1905;52.482;9.802;2023-04-08T10:53:12;21.20;;;9.90;;
3779;SDS011;1905;52.482;9.802;2023-04-08T10:55:40;16.50;;;8.93;;
3779;SDS011;1905;52.482;9.802;2023-04-08T10:58:09;13.80;;;8.80;;
3779;SDS011;1905;52.482;9.802;2023-04-08T11:00:39;15.03;;;8.50;;
3779;SDS011;1905;52.482;9.802;2023-04-08T11:03:07;13.67;;;8.77;;
3779;SDS011;1905;52.482;9.802;2023-04-08T11:05:41;13.03;;;9.07;;
3779;SDS011;1905;52.482;9.802;2023-04-08T11:08:08;12.70;;;9.07;;
3779;SDS011;1905;52.482;9.802;2023-04-08T11:10:38;18.10;;;9.00;;
3779;SDS011;1905;52.482;9.802;2023-04-08T11:13:06;13.40;;;8.10;;
3779;SDS011;1905;52.482;9.802;2023-04-08T11:15:35;12.90;;;8.40;;
3779;SDS011;1905;52.482;9.802;2023-04-08T11:18:03;17.60;;;9.47;;
3779;SDS011;1905;52.482;9.802;2023-04-08T11:20:31;15.67;;;9.00;;
3779;SDS011;1905;52.482;9.802;2023-04-08T11:23:01;12.27;;;7.60;;
3779;SDS011;1905;52.482;9.802;2023-04-08T11:25:29;18.27;;;8.50;;
3779;SDS011;1905;52.482;9.802;2023-04-08T11:27:59;16.77;;;9.47;;
3779;SDS011;1905;52.482;9.802;2023-04-08T11:30:26;17.60;;;9.33;;
3779;SDS011;1905;52.482;9.802;2023-04-08T11:32:56;18.07;;;9.30;;
3779;SDS011;1905;52.482;9.802;2023-04-08T11:35:27;15.43;;;8.40;;
3779;SDS011;1905;52.482;9.802;2023-04-08T11:37:55;10.60;;;7.63;;
3779;SDS011;1905;52.482;9.802;2023-04-08T11:40:24;13.70;;;8.07;;
3779;SDS011;1905;52.482;9.802;2023-04-08T11:42:52;13.87;;;8.83;;
3779;SDS011;1905;52.482;9.802;2023-04-08T11:45:21;16.17;;;8.10;;
3779;SDS011;1905;52.482;9.802;2023-04-08T11:47:49;22.07;;;9.93;;
3779;SDS011;1905;52.482;9.802;2023-04-08T11:50:23;17.17;;;9.00;;
3779;SDS011;1905;52.482;9.802;2023-04-08T11:52:51;15.50;;;8.33;;
3779;SDS011;1905;52.482;9.802;2023-04-08T11:55:21;18.10;;;8.87;;
3779;SDS011;1905;52.482;9.802;2023-04-08T11:57:50;19.50;;;8.50;;
3779;SDS011;1905;52.482;9.802;2023-04-08T12:00:18;14.03;;;8.47;;
3779;SDS011;1905;52.482;9.802;2023-04-08T12:02:47;10.67;;;7.40;;
3779;SDS011;1905;52.482;9.802;2023-04-08T12:05:15;12.63;;;7.03;;
3779;SDS011;1905;52.482;9.802;2023-04-08T12:07:43;15.00;;;8.23;;
3779;SDS011;1905;52.482;9.802;2023-04-08T12:10:11;15.40;;;7.50;;
3779;SDS011;1905;52.482;9.802;2023-04-08T12:12:41;12.70;;;7.20;;
3779;SDS011;1905;52.482;9.802;2023-04-08T12:15:09;16.50;;;9.23;;
3779;SDS011;1905;52.482;9.802;2023-04-08T12:17:37;12.00;;;8.03;;
3779;SDS011;1905;52.482;9.802;2023-04-08T12:20:07;14.07;;;8.53;;
3779;SDS011;1905;52.482;9.802;2023-04-08T12:22:35;14.03;;;7.60;;
3779;SDS011;1905;52.482;9.802;2023-04-08T12:25:04;10.13;;;6.50;;
3779;SDS011;1905;52.482;9.802;2023-04-08T12:27:32;12.53;;;8.80;;
3779;SDS011;1905;52.482;9.802;2023-04-08T12:30:00;11.37;;;7.53;;
3779;SDS011;1905;52.482;9.802;2023-04-08T12:32:28;14.10;;;7.70;;
3779;SDS011;1905;52.482;9.802;2023-04-08T12:34:56;13.17;;;7.47;;
3779;SDS011;1905;52.482;9.802;2023-04-08T12:37:24;13.57;;;9.30;;
3779;SDS011;1905;52.482;9.802;2023-04-08T12:39:52;14.23;;;8.50;;
3779;SDS011;1905;52.482;9.802;2023-04-08T12:42:20;15.67;;;8.10;;
3779;SDS011;1905;52.482;9.802;2023-04-08T12:44:47;10.60;;;7.40;;
3779;SDS011;1905;52.482;9.802;2023-04-08T12:47:15;17.43;;;9.20;;
3779;SDS011;1905;52.482;9.802;2023-04-08T12:49:42;14.53;;;8.37;;
3779;SDS011;1905;52.482;9.802;2023-04-08T12:52:15;13.90;;;7.60;;
3779;SDS011;1905;52.482;9.802;2023-04-08T12:54:45;14.23;;;8.20;;
3779;SDS011;1905;52.482;9.802;2023-04-08T12:57:12;12.90;;;8.43;;
3779;SDS011;1905;52.482;9.802;2023-04-08T12:59:42;14.13;;;9.17;;
3779;SDS011;1905;52.482;9.802;2023-04-08T13:02:10;12.20;;;8.27;;
3779;SDS011;1905;52.482;9.802;2023-04-08T13:04:37;20.70;;;9.90;;
3779;SDS011;1905;52.482;9.802;2023-04-08T13:07:05;14.73;;;9.40;;
3779;SDS011;1905;52.482;9.802;2023-04-08T13:09:33;18.30;;;10.53;;
3779;SDS011;1905;52.482;9.802;2023-04-08T13:12:02;13.57;;;8.00;;
3779;SDS011;1905;52.482;9.802;2023-04-08T13:14:30;13.37;;;9.17;;
3779;SDS011;1905;52.482;9.802;2023-04-08T13:16:58;17.17;;;9.53;;
3779;SDS011;1905;52.482;9.802;2023-04-08T13:19:25;21.17;;;12.60;;
3779;SDS011;1905;52.482;9.802;2023-04-08T13:21:53;14.93;;;8.90;;
3779;SDS011;1905;52.482;9.802;2023-04-08T13:24:20;16.60;;;8.07;;
3779;SDS011;1905;52.482;9.802;2023-04-08T13:26:48;17.87;;;9.87;;
3779;SDS011;1905;52.482;9.802;2023-04-08T13:29:18;14.90;;;9.23;;
3779;SDS011;1905;52.482;9.802;2023-04-08T13:31:45;13.87;;;8.97;;
3779;SDS011;1905;52.482;9.802;2023-04-08T13:34:12;12.00;;;7.50;;
3779;SDS011;1905;52.482;9.802;2023-04-08T13:36:40;17.73;;;8.30;;
3779;SDS011;1905;52.482;9.802;2023-04-08T13:39:08;16.80;;;9.87;;
3779;SDS011;1905;52.482;9.802;2023-04-08T13:41:36;16.43;;;8.77;;
3779;SDS011;1905;52.482;9.802;2023-04-08T13:44:03;16.70;;;9.73;;
3779;SDS011;1905;52.482;9.802;2023-04-08T13:46:33;12.57;;;8.10;;
3779;SDS011;1905;52.482;9.802;2023-04-08T13:49:01;27.43;;;9.53;;
3779;SDS011;1905;52.482;9.802;2023-04-08T13:51:29;14.37;;;9.93;;
3779;SDS011;1905;52.482;9.802;2023-04-08T13:53:57;15.30;;;8.40;;
3779;SDS011;1905;52.482;9.802;2023-04-08T13:56:24;12.80;;;8.30;;
3779;SDS011;1905;52.482;9.802;2023-04-08T13:58:52;15.10;;;8.67;;
3779;SDS011;1905;52.482;9.802;2023-04-08T14:01:23;16.60;;;8.77;;
3779;SDS011;1905;52.482;9.802;2023-04-08T14:03:52;14.93;;;9.17;;
3779;SDS011;1905;52.482;9.802;2023-04-08T14:06:19;18.10;;;9.63;;
3779;SDS011;1905;52.482;9.802;2023-04-08T14:08:47;21.47;;;10.57;;
3779;SDS011;1905;52.482;9.802;2023-04-08T14:11:15;16.30;;;9.13;;
3779;SDS011;1905;52.482;9.802;2023-04-08T14:13:42;15.43;;;9.43;;
3779;SDS011;1905;52.482;9.802;2023-04-08T14:16:10;13.00;;;8.30;;
3779;SDS011;1905;52.482;9.802;2023-04-08T14:18:38;16.50;;;8.47;;
3779;SDS011;1905;52.482;9.802;2023-04-08T14:21:07;14.60;;;8.80;;
3779;SDS011;1905;52.482;9.802;2023-04-08T14:23:34;15.33;;;9.03;;
3779;SDS011;1905;52.482;9.802;2023-04-08T14:26:02;12.23;;;8.47;;
3779;SDS011;1905;52.482;9.802;2023-04-08T14:28:29;12.20;;;7.73;;
3779;SDS011;1905;52.482;9.802;2023-04-08T14:30:57;18.13;;;10.83;;
3779;SDS011;1905;52.482;9.802;2023-04-08T14:33:24;15.57;;;9.00;;
3779;SDS011;1905;52.482;9.802;2023-04-08T14:35:52;17.57;;;9.07;;
3779;SDS011;1905;52.482;9.802;2023-04-08T14:38:21;15.50;;;8.47;;
3779;SDS011;1905;52.482;9.802;2023-04-08T14:40:49;16.57;;;11.53;;
3779;SDS011;1905;52.482;9.802;2023-04-08T14:43:16;16.17;;;10.40;;
3779;SDS011;1905;52.482;9.802;2023-04-08T14:45:44;14.73;;;10.10;;
3779;SDS011;1905;52.482;9.802;2023-04-08T14:48:11;13.77;;;7.97;;
3779;SDS011;1905;52.482;9.802;2023-04-08T14:50:39;11.60;;;7.33;;
3779;SDS011;1905;52.482;9.802;2023-04-08T14:53:07;13.87;;;7.93;;
3779;SDS011;1905;52.482;9.802;2023-04-08T14:55:36;14.70;;;9.63;;
3779;SDS011;1905;52.482;9.802;2023-04-08T14:58:03;16.60;;;9.43;;
3779;SDS011;1905;52.482;9.802;2023-04-08T15:00:31;15.20;;;8.93;;
3779;SDS011;1905;52.482;9.802;2023-04-08T15:02:59;14.03;;;9.10;;
3779;SDS011;1905;52.482;9.802;2023-04-08T15:05:26;17.47;;;8.80;;
3779;SDS011;1905;52.482;9.802;2023-04-08T15:07:54;14.90;;;10.33;;
3779;SDS011;1905;52.482;9.802;2023-04-08T15:10:21;14.63;;;9.17;;
3779;SDS011;1905;52.482;9.802;2023-04-08T15:12:50;15.97;;;9.03;;
3779;SDS011;1905;52.482;9.802;2023-04-08T15:15:18;15.80;;;9.57;;
3779;SDS011;1905;52.482;9.802;2023-04-08T15:17:45;14.60;;;9.37;;
3779;SDS011;1905;52.482;9.802;2023-04-08T15:20:17;13.60;;;8.20;;
3779;SDS011;1905;52.482;9.802;2023-04-08T15:22:45;15.93;;;8.80;;